Auriesville, New York
Current Conditions -  °F | °C
As of 6:15 PM on Monday 22 Dec 2014 (Local Time) from KNY0 Reporting Station
Overcast Overcast  
Wind Chill: -3°   Ceiling: 2900
Heat Index:   Visibility: 10mi
Dew Point: -2°   Wind: 5mph
Humidity: 90%   Direction: 70°ENE
Pressure: 30.24"   Gusts: NA
Location:  42.93°N, 74.32°W
Report Text: KNY0 222315Z AUTO 07004KT 10SM SCT014 BKN029 OVC040 00/M02 A3024 RMK AO2 T10051020
Loading
Personal Weather Stations






























Interactive Weather Map New forecast layout! Learn more

10-Day Weather Forecast

Advertisements
Track Severe Weather on mobile